메인 페이지
METAR-TAF:

METAR-TAF

공항 :

앤토니오 B. 원 팻 국제공항

하갓냐, 괌, 미국

위도: 13-29N, 경도: 144-48E, 고도: 91m

현재 날씨관측

예보는 16분 전, 15:27시(UTC)에 발표되었습니다.
16kt
온도 26°C
습도 100%
기압 1007 hPa
시정: 9.7km
고도 1000ft 상공 구름 조금
고도 1500ft 상공 구름 많음
고도 2600ft 상공 구름 많음
약한비, 박무

METAR: PGUM 191527Z 28016KT 6SM -RA BR FEW010 BKN015 BKN026 26/26 A2975 RMK AO2 RAB22 P0000 T02610261 $

시각: 01:43 (15:43 UTC)

예보

예보는 4 시간 4분 전, 11:39시(UTC)에 발표되었습니다.
예보 대상 시간: 19일 12시부터 20일 18시까지 (UTC)
11kt, 순간 최대 풍속 20kt
시정: 9.7km
고도 1000ft 상공 구름 조금
고도 3000ft 상공 구름 많음
고도 10000ft 상공 흐림
약한비
일시적
19일 12시부터 19일 16시까지 (UTC)
16kt, 순간 최대 풍속 30kt
시정: 3.2km
고도 700ft 상공 구름 조금
고도 1400ft 상공 구름 보통
고도 2500ft 상공 흐림
강한소나기
20일 0100시부터 (UTC)
16kt, 순간 최대 풍속 26kt
시정: 9.7km
고도 1200ft 상공 구름 보통
고도 3000ft 상공 흐림
소나기

TAF: PGUM 191139Z 1912/2018 26011G20KT 6SM -RA FEW010 BKN030 OVC100 TEMPO 1912/1916 27016G30KT 2SM +SHRA FEW007 SCT014 OVC025 FM200100 27016G26KT 6SM SHRA SCT012 OVC030

4,000개 이상의 공항 관측 자료 및 예보 (METAR 및 TAF 보고).

지도상에서 검색 가능한 기상관측소가 노란 점과 빨간 점으로 표시되어 있습니다.

기상관측소 명을 보려면 표시 위로 마우스를 이동하세요.

날씨 관측과 예보를 보려면 클릭하세요.

지도 변경 : 확대하려면 엑스 표시가 있는 녹색 버튼, 축소하려면 빼기 표시가 있는 녹색 버튼, 다음 페이지의 지도를 보려면 녹색 화살표를 클릭하세요.


METAR-TAF: